Time;durP1;ratioP1;P1;durP2;ratioP2;P2;SDS_P1;SDS_P2;PMS_P1;PMS_P2;Temp;Humidity;BMP_temperature;BMP_pressure;BME280_temperature;BME280_humidity;BME280_pressure;Samples;Min_cycle;Max_cycle;Signal;HPM_P1;HPM_P2
2024/04/24 00:00:16;;;;;;;3.85;1.20;;;;;;;;;;5307250;26;20060;-62
2024/04/24 00:02:42;;;;;;;1.55;1.08;;;;;;;;;;5338126;26;20379;-63
2024/04/24 00:05:07;;;;;;;1.42;1.08;;;;;;;;;;5338989;26;20511;-61
2024/04/24 00:07:33;;;;;;;2.58;1.40;;;;;;;;;;5352451;26;20005;-62
2024/04/24 00:09:59;;;;;;;2.97;1.33;;;;;;;;;;5376440;26;20013;-61
2024/04/24 00:12:25;;;;;;;7.10;1.58;;;;;;;;;;5372539;26;20366;-61
2024/04/24 00:14:50;;;;;;;3.22;1.40;;;;;;;;;;5341638;26;20018;-62
2024/04/24 00:17:16;;;;;;;2.35;1.67;;;;;;;;;;5366403;26;20028;-62
2024/04/24 00:19:41;;;;;;;2.80;1.38;;;;;;;;;;5341925;26;20897;-62
2024/04/24 00:22:07;;;;;;;2.75;1.30;;;;;;;;;;5341741;26;20016;-62
2024/04/24 00:24:33;;;;;;;1.83;1.40;;;;;;;;;;5311186;26;20505;-63
2024/04/24 00:26:59;;;;;;;2.67;2.03;;;;;;;;;;5376796;26;20012;-61
2024/04/24 00:29:25;;;;;;;4.63;1.70;;;;;;;;;;5351212;26;20005;-62
2024/04/24 00:31:51;;;;;;;2.00;1.60;;;;;;;;;;5341999;26;20551;-60
2024/04/24 00:34:20;;;;;;;2.53;2.08;;;;;;;;;;5341825;26;20024;-64
2024/04/24 00:36:46;;;;;;;2.28;1.30;;;;;;;;;;5342501;26;20078;-60
2024/04/24 00:39:12;;;;;;;2.20;1.50;;;;;;;;;;5342632;26;20017;-62
2024/04/24 00:41:38;;;;;;;1.73;1.25;;;;;;;;;;5353966;26;20023;-60
2024/04/24 00:44:04;;;;;;;2.40;1.48;;;;;;;;;;5334078;26;20040;-61
2024/04/24 00:46:32;;;;;;;5.40;1.33;;;;;;;;;;5376577;26;20008;-60
2024/04/24 00:48:58;;;;;;;12.90;2.80;;;;;;;;;;5376285;26;20009;-61
2024/04/24 00:51:24;;;;;;;5.15;1.83;;;;;;;;;;5376602;26;20552;-61
2024/04/24 00:53:50;;;;;;;4.45;1.67;;;;;;;;;;5341250;26;20016;-63
2024/04/24 00:56:16;;;;;;;12.60;1.92;;;;;;;;;;5342011;26;20368;-63
2024/04/24 00:58:42;;;;;;;3.72;1.80;;;;;;;;;;5341484;26;20023;-62
2024/04/24 01:01:08;;;;;;;7.63;1.90;;;;;;;;;;5282568;26;20553;-62
2024/04/24 01:03:33;;;;;;;3.05;1.50;;;;;;;;;;5341413;26;20021;-61
2024/04/24 01:05:59;;;;;;;4.00;1.58;;;;;;;;;;5340544;26;20386;-63
2024/04/24 01:08:25;;;;;;;5.38;1.77;;;;;;;;;;5360576;26;20081;-62
2024/04/24 01:10:56;;;;;;;3.10;1.30;;;;;;;;;;5375525;26;20020;-63
2024/04/24 01:13:22;;;;;;;4.15;1.30;;;;;;;;;;5375475;26;20050;-62
2024/04/24 01:15:55;;;;;;;3.95;1.42;;;;;;;;;;5323376;26;20857;-62
2024/04/24 01:18:24;;;;;;;4.43;1.60;;;;;;;;;;5361865;26;20004;-62
2024/04/24 01:20:51;;;;;;;3.80;1.50;;;;;;;;;;5345241;26;20005;-61
2024/04/24 01:23:23;;;;;;;3.75;1.70;;;;;;;;;;5344626;26;20063;-62
2024/04/24 01:25:52;;;;;;;2.63;1.63;;;;;;;;;;5358005;26;20020;-63
2024/04/24 01:28:18;;;;;;;4.10;2.00;;;;;;;;;;5309986;26;20036;-63
2024/04/24 01:30:43;;;;;;;3.53;1.75;;;;;;;;;;5340329;26;20020;-62
2024/04/24 01:33:09;;;;;;;2.80;1.65;;;;;;;;;;5309484;26;20036;-63
2024/04/24 01:35:34;;;;;;;4.72;1.80;;;;;;;;;;5339764;26;20005;-62
2024/04/24 01:38:00;;;;;;;5.32;2.03;;;;;;;;;;5339971;26;20016;-63
2024/04/24 01:40:26;;;;;;;3.58;1.90;;;;;;;;;;5309180;26;20005;-62
2024/04/24 01:42:52;;;;;;;3.00;1.92;;;;;;;;;;5309063;26;20048;-62
2024/04/24 01:45:18;;;;;;;4.90;1.70;;;;;;;;;;5339451;26;20013;-61
2024/04/24 01:47:43;;;;;;;4.07;1.80;;;;;;;;;;5339311;26;20009;-63
2024/04/24 01:50:09;;;;;;;2.97;1.75;;;;;;;;;;5339775;26;20097;-61
2024/04/24 01:52:35;;;;;;;3.63;1.73;;;;;;;;;;5309122;26;20001;-62
2024/04/24 01:55:00;;;;;;;2.63;1.90;;;;;;;;;;5339708;26;20016;-62
2024/04/24 01:57:26;;;;;;;4.10;1.80;;;;;;;;;;5340824;26;20570;-62
2024/04/24 01:59:52;;;;;;;2.95;1.95;;;;;;;;;;5341638;26;20005;-63
2024/04/24 02:02:17;;;;;;;3.83;1.77;;;;;;;;;;5340523;26;20438;-62
2024/04/24 02:04:43;;;;;;;5.80;1.75;;;;;;;;;;5340400;26;20377;-62
2024/04/24 02:07:09;;;;;;;4.78;2.35;;;;;;;;;;5341339;26;20037;-62
2024/04/24 02:09:35;;;;;;;2.75;2.10;;;;;;;;;;5343615;26;20011;-62
2024/04/24 02:12:00;;;;;;;2.95;1.95;;;;;;;;;;5374806;26;20101;-63
2024/04/24 02:14:26;;;;;;;5.30;1.92;;;;;;;;;;5374247;26;20098;-61
2024/04/24 02:16:52;;;;;;;3.95;2.00;;;;;;;;;;5366658;26;20020;-61
2024/04/24 02:19:37;;;;;;;3.70;2.00;;;;;;;;;;5314014;26;20017;-62
2024/04/24 02:22:03;;;;;;;6.55;2.20;;;;;;;;;;5339563;26;20075;-61
2024/04/24 02:27:13;;;;;;;4.85;2.35;;;;;;;;;;5313004;26;20019;-62
2024/04/24 02:29:39;;;;;;;5.55;2.17;;;;;;;;;;5374210;26;20541;-62
2024/04/24 02:32:04;;;;;;;3.88;2.10;;;;;;;;;;5374441;26;19996;-62
2024/04/24 02:34:30;;;;;;;2.70;1.80;;;;;;;;;;5374520;26;20486;-63
2024/04/24 02:36:55;;;;;;;3.83;2.25;;;;;;;;;;5374079;26;20518;-62
2024/04/24 02:39:21;;;;;;;5.88;2.30;;;;;;;;;;5339847;26;20491;-63
2024/04/24 02:41:47;;;;;;;7.03;2.47;;;;;;;;;;5309402;26;20363;-62
2024/04/24 02:44:13;;;;;;;7.93;1.98;;;;;;;;;;5339672;26;20127;-63
2024/04/24 02:46:40;;;;;;;6.00;2.25;;;;;;;;;;5339039;26;20017;-62
2024/04/24 02:49:07;;;;;;;4.38;2.15;;;;;;;;;;5338939;26;20020;-63
2024/04/24 02:51:33;;;;;;;4.00;2.33;;;;;;;;;;5338732;26;20005;-62
2024/04/24 02:53:58;;;;;;;5.88;2.60;;;;;;;;;;5338914;26;20385;-62
2024/04/24 02:56:24;;;;;;;7.07;2.70;;;;;;;;;;5338956;26;20013;-61
2024/04/24 02:58:50;;;;;;;6.88;2.40;;;;;;;;;;5338322;26;20020;-63
2024/04/24 03:01:15;;;;;;;6.10;2.67;;;;;;;;;;5306729;26;20086;-62
2024/04/24 03:03:41;;;;;;;3.22;2.08;;;;;;;;;;5340927;26;20018;-63
2024/04/24 03:06:07;;;;;;;5.13;2.33;;;;;;;;;;5373571;26;20019;-63
2024/04/24 03:08:33;;;;;;;6.85;2.35;;;;;;;;;;5364666;26;20001;-62
2024/04/24 03:10:59;;;;;;;7.18;2.58;;;;;;;;;;5338008;26;20017;-63
2024/04/24 03:13:24;;;;;;;3.45;1.80;;;;;;;;;;5338460;26;20106;-62
2024/04/24 03:15:50;;;;;;;3.38;1.70;;;;;;;;;;5320015;26;20000;-63
2024/04/24 03:18:16;;;;;;;5.78;2.30;;;;;;;;;;5373069;26;20023;-64
2024/04/24 03:20:41;;;;;;;3.55;2.13;;;;;;;;;;5338673;26;20017;-63
2024/04/24 03:23:07;;;;;;;7.20;2.15;;;;;;;;;;5338076;26;20013;-62
2024/04/24 03:25:33;;;;;;;4.78;2.00;;;;;;;;;;5337642;26;20571;-64
2024/04/24 03:27:58;;;;;;;5.57;2.25;;;;;;;;;;5279442;26;20005;-62
2024/04/24 03:30:24;;;;;;;5.25;2.42;;;;;;;;;;5337654;26;20019;-64
2024/04/24 03:32:50;;;;;;;5.60;2.13;;;;;;;;;;5338101;26;20001;-64
2024/04/24 03:35:15;;;;;;;4.95;1.52;;;;;;;;;;5307624;26;20017;-63
2024/04/24 03:37:41;;;;;;;9.48;2.30;;;;;;;;;;5278849;26;20009;-63
2024/04/24 03:40:07;;;;;;;5.80;2.28;;;;;;;;;;5321815;26;20117;-63
2024/04/24 03:42:33;;;;;;;4.72;1.80;;;;;;;;;;5372909;26;20004;-63
2024/04/24 03:44:58;;;;;;;3.40;2.10;;;;;;;;;;5373090;26;20016;-63
2024/04/24 03:47:25;;;;;;;2.83;1.88;;;;;;;;;;5342691;26;20438;-63
2024/04/24 03:49:50;;;;;;;30.30;4.47;;;;;;;;;;5364195;26;20009;-63
2024/04/24 03:52:17;;;;;;;8.35;2.40;;;;;;;;;;5307544;26;20505;-63
2024/04/24 03:54:43;;;;;;;3.00;1.92;;;;;;;;;;5336202;26;20004;-64
2024/04/24 03:57:08;;;;;;;3.90;2.17;;;;;;;;;;5306958;26;20009;-62
2024/04/24 03:59:34;;;;;;;4.35;2.47;;;;;;;;;;5338157;26;20363;-62
2024/04/24 04:01:59;;;;;;;7.07;2.10;;;;;;;;;;5338423;26;20015;-62
2024/04/24 04:04:25;;;;;;;5.13;2.15;;;;;;;;;;5336450;26;20005;-63
2024/04/24 04:06:51;;;;;;;4.05;1.98;;;;;;;;;;5338236;26;20028;-63
2024/04/24 04:09:16;;;;;;;5.43;2.10;;;;;;;;;;5279009;26;20013;-63
2024/04/24 04:11:42;;;;;;;6.20;2.58;;;;;;;;;;5337130;26;20001;-64
2024/04/24 04:14:08;;;;;;;3.58;2.22;;;;;;;;;;5337595;26;20012;-64
2024/04/24 04:16:33;;;;;;;3.95;2.15;;;;;;;;;;5361520;26;20027;-64
2024/04/24 04:18:59;;;;;;;8.75;2.88;;;;;;;;;;5373081;26;20317;-64
2024/04/24 04:21:25;;;;;;;5.57;2.10;;;;;;;;;;5356541;26;20082;-63
2024/04/24 04:23:50;;;;;;;4.68;2.13;;;;;;;;;;5337723;26;20013;-63
2024/04/24 04:26:16;;;;;;;3.70;2.40;;;;;;;;;;5337776;26;20583;-68
2024/04/24 04:28:42;;;;;;;3.80;2.03;;;;;;;;;;5337277;26;20107;-66
2024/04/24 04:31:07;;;;;;;4.40;2.72;;;;;;;;;;5337228;26;20012;-63
2024/04/24 04:33:33;;;;;;;7.97;2.45;;;;;;;;;;5337983;26;20033;-65
2024/04/24 04:36:03;;;;;;;4.68;2.55;;;;;;;;;;5337741;26;20005;-63
2024/04/24 04:38:29;;;;;;;5.90;2.50;;;;;;;;;;5336859;26;20009;-65
2024/04/24 04:40:54;;;;;;;4.75;2.63;;;;;;;;;;5337110;26;20074;-64
2024/04/24 04:43:20;;;;;;;5.22;2.65;;;;;;;;;;5337505;26;20498;-64
2024/04/24 04:45:46;;;;;;;4.10;2.20;;;;;;;;;;5337291;26;20356;-64
2024/04/24 04:48:12;;;;;;;4.82;2.33;;;;;;;;;;5337042;26;20005;-64
2024/04/24 04:50:38;;;;;;;6.50;2.33;;;;;;;;;;5306846;26;20093;-64
2024/04/24 04:53:03;;;;;;;2.80;2.17;;;;;;;;;;5340623;26;20016;-63
2024/04/24 04:55:29;;;;;;;3.65;2.20;;;;;;;;;;5309361;26;20040;-65
2024/04/24 04:57:58;;;;;;;2.70;2.08;;;;;;;;;;5338128;26;20011;-63
2024/04/24 05:00:24;;;;;;;4.45;2.40;;;;;;;;;;5339861;26;20016;-64
2024/04/24 05:02:49;;;;;;;6.88;2.40;;;;;;;;;;5340220;26;20020;-65
2024/04/24 05:05:15;;;;;;;4.68;2.45;;;;;;;;;;5340091;26;20487;-63
2024/04/24 05:07:41;;;;;;;3.47;2.13;;;;;;;;;;5312775;26;20005;-65
2024/04/24 05:10:07;;;;;;;6.18;2.38;;;;;;;;;;5339476;26;20050;-63
2024/04/24 05:12:32;;;;;;;7.38;2.50;;;;;;;;;;5331366;26;20381;-63
2024/04/24 05:14:58;;;;;;;6.32;2.40;;;;;;;;;;5374673;26;20008;-62
2024/04/24 05:17:24;;;;;;;5.07;2.22;;;;;;;;;;5374440;26;20011;-64
2024/04/24 05:19:49;;;;;;;5.70;3.53;;;;;;;;;;5357464;26;20025;-64
2024/04/24 05:22:15;;;;;;;4.35;2.30;;;;;;;;;;5339645;26;20430;-64
2024/04/24 05:24:41;;;;;;;4.38;2.35;;;;;;;;;;5336222;26;20020;-63
2024/04/24 05:29:51;;;;;;;3.05;1.90;;;;;;;;;;5339874;26;20020;-61
2024/04/24 05:32:17;;;;;;;4.53;2.17;;;;;;;;;;5327472;26;20475;-62
2024/04/24 05:34:42;;;;;;;5.13;2.00;;;;;;;;;;5343714;26;20008;-58
2024/04/24 05:37:26;;;;;;;3.53;2.35;;;;;;;;;;5744471;21;20490;-55
2024/04/24 05:39:52;;;;;;;4.32;2.83;;;;;;;;;;5298654;26;20015;-54
2024/04/24 05:42:17;;;;;;;3.40;2.15;;;;;;;;;;5338520;26;20527;-55
2024/04/24 05:44:43;;;;;;;3.00;2.03;;;;;;;;;;5309499;26;20468;-57
2024/04/24 05:47:08;;;;;;;3.95;2.10;;;;;;;;;;5338949;26;20013;-57
2024/04/24 05:49:34;;;;;;;3.03;1.23;;;;;;;;;;5280309;26;20504;-55
2024/04/24 05:52:00;;;;;;;2.90;1.58;;;;;;;;;;5338972;26;20024;-56
2024/04/24 05:54:26;;;;;;;4.95;1.52;;;;;;;;;;5338960;26;20094;-57
2024/04/24 05:56:51;;;;;;;3.78;2.30;;;;;;;;;;5308762;26;20009;-55
2024/04/24 05:59:17;;;;;;;2.50;1.40;;;;;;;;;;5339494;26;20015;-55
2024/04/24 06:01:43;;;;;;;1.92;1.10;;;;;;;;;;5339245;26;20122;-55
2024/04/24 06:04:08;;;;;;;5.40;2.10;;;;;;;;;;5338480;26;20005;-55
2024/04/24 06:06:35;;;;;;;5.05;1.50;;;;;;;;;;5339198;26;20070;-55
2024/04/24 06:09:00;;;;;;;5.75;1.38;;;;;;;;;;5339198;26;20009;-51
2024/04/24 06:11:26;;;;;;;1.17;1.08;;;;;;;;;;5307901;26;20016;-51
2024/04/24 06:13:52;;;;;;;2.42;1.02;;;;;;;;;;5279849;26;20012;-55
2024/04/24 06:16:17;;;;;;;4.93;1.83;;;;;;;;;;5338907;26;20005;-54
2024/04/24 06:18:43;;;;;;;1.90;1.20;;;;;;;;;;5339129;26;20122;-53
2024/04/24 06:21:09;;;;;;;2.50;1.17;;;;;;;;;;5338703;26;20016;-54
2024/04/24 06:23:34;;;;;;;2.30;1.40;;;;;;;;;;5300436;27;20021;-53
2024/04/24 06:26:00;;;;;;;4.35;1.40;;;;;;;;;;5274177;27;20005;-53
2024/04/24 06:28:25;;;;;;;3.92;1.60;;;;;;;;;;5325689;26;20641;-53
2024/04/24 06:30:51;;;;;;;2.47;1.60;;;;;;;;;;5292381;27;20025;-57
2024/04/24 06:33:17;;;;;;;4.43;1.52;;;;;;;;;;5281189;26;20027;-52
2024/04/24 06:35:42;;;;;;;4.18;1.63;;;;;;;;;;5308828;26;20480;-53
2024/04/24 06:38:08;;;;;;;8.32;1.80;;;;;;;;;;5338762;26;20013;-49
2024/04/24 06:40:34;;;;;;;3.10;2.10;;;;;;;;;;5337342;26;20009;-54
2024/04/24 06:43:00;;;;;;;3.17;1.67;;;;;;;;;;5333431;26;20025;-55
2024/04/24 06:45:25;;;;;;;3.70;2.00;;;;;;;;;;5308469;26;20005;-53
2024/04/24 06:47:51;;;;;;;4.90;1.88;;;;;;;;;;5307485;26;20095;-52
2024/04/24 06:50:17;;;;;;;3.78;2.15;;;;;;;;;;5339225;26;20017;-55
2024/04/24 06:52:43;;;;;;;4.43;2.08;;;;;;;;;;5339111;26;20078;-57
2024/04/24 06:55:08;;;;;;;5.95;2.20;;;;;;;;;;5339154;26;20016;-56
2024/04/24 06:57:34;;;;;;;5.05;2.13;;;;;;;;;;5339013;26;20016;-57
2024/04/24 07:00:00;;;;;;;8.15;1.80;;;;;;;;;;5336840;26;20012;-55
2024/04/24 07:02:26;;;;;;;4.50;2.00;;;;;;;;;;5307205;26;20106;-55
2024/04/24 07:04:51;;;;;;;2.65;1.90;;;;;;;;;;5308211;26;20013;-53
2024/04/24 07:07:17;;;;;;;3.60;2.40;;;;;;;;;;5307927;26;20016;-55
2024/04/24 07:09:42;;;;;;;3.30;2.30;;;;;;;;;;5337804;26;20012;-56
2024/04/24 07:12:08;;;;;;;3.38;2.00;;;;;;;;;;5338386;26;20025;-55
2024/04/24 07:14:34;;;;;;;5.95;2.25;;;;;;;;;;5338648;26;20008;-53
2024/04/24 07:16:59;;;;;;;4.68;2.13;;;;;;;;;;5338481;26;20005;-48
2024/04/24 07:19:25;;;;;;;3.63;2.35;;;;;;;;;;5307270;26;20857;-52
2024/04/24 07:21:51;;;;;;;2.38;2.05;;;;;;;;;;5334313;26;20108;-53
2024/04/24 07:24:17;;;;;;;4.40;2.08;;;;;;;;;;5337997;26;20499;-55
2024/04/24 07:26:42;;;;;;;4.03;1.80;;;;;;;;;;5335714;26;20000;-50
2024/04/24 07:29:08;;;;;;;2.67;1.70;;;;;;;;;;5337679;26;20013;-53
2024/04/24 07:31:34;;;;;;;5.60;2.30;;;;;;;;;;5336588;26;20056;-56
2024/04/24 07:34:00;;;;;;;3.15;2.00;;;;;;;;;;5337654;26;20013;-53
2024/04/24 07:36:26;;;;;;;2.15;1.95;;;;;;;;;;5338125;26;20998;-54
2024/04/24 07:38:52;;;;;;;2.25;1.65;;;;;;;;;;5337791;26;20486;-52
2024/04/24 07:41:18;;;;;;;2.50;1.92;;;;;;;;;;5306367;26;20012;-55
2024/04/24 07:43:45;;;;;;;3.35;1.90;;;;;;;;;;5307165;26;20009;-54
2024/04/24 07:46:11;;;;;;;3.35;1.77;;;;;;;;;;5337523;26;20419;-54
2024/04/24 07:48:37;;;;;;;5.43;1.77;;;;;;;;;;5337367;26;20023;-55
2024/04/24 07:51:03;;;;;;;2.78;1.67;;;;;;;;;;5337217;26;20037;-56
2024/04/24 07:53:29;;;;;;;3.78;1.60;;;;;;;;;;5305755;26;20477;-53
2024/04/24 07:55:55;;;;;;;4.22;1.70;;;;;;;;;;5306897;26;20024;-56
2024/04/24 07:58:20;;;;;;;3.90;1.90;;;;;;;;;;5337546;26;20877;-57
2024/04/24 08:00:46;;;;;;;3.88;1.77;;;;;;;;;;5337153;26;20016;-56
2024/04/24 08:03:12;;;;;;;2.90;1.83;;;;;;;;;;5336690;26;20023;-56
2024/04/24 08:05:37;;;;;;;2.38;1.85;;;;;;;;;;5278297;26;20008;-57
2024/04/24 08:08:04;;;;;;;4.03;2.10;;;;;;;;;;5337566;26;20024;-56
2024/04/24 08:10:29;;;;;;;4.97;1.73;;;;;;;;;;5337535;26;20009;-54
2024/04/24 08:12:55;;;;;;;2.60;2.00;;;;;;;;;;5336613;26;20379;-53
2024/04/24 08:15:21;;;;;;;4.47;2.00;;;;;;;;;;5337610;26;20023;-55
2024/04/24 08:17:47;;;;;;;2.40;2.00;;;;;;;;;;5277373;26;20009;-53
2024/04/24 08:20:14;;;;;;;3.75;2.20;;;;;;;;;;5337259;26;20020;-50
2024/04/24 08:22:40;;;;;;;4.57;1.95;;;;;;;;;;5335687;26;20041;-56
2024/04/24 08:25:06;;;;;;;5.95;2.13;;;;;;;;;;5336782;26;20518;-54
2024/04/24 08:27:32;;;;;;;5.10;2.38;;;;;;;;;;5309088;26;20009;-52
2024/04/24 08:29:58;;;;;;;2.35;1.98;;;;;;;;;;5340934;26;20349;-53
2024/04/24 08:32:23;;;;;;;6.65;1.92;;;;;;;;;;5308870;26;20024;-55
2024/04/24 08:34:49;;;;;;;3.33;2.30;;;;;;;;;;5310657;26;20027;-54
2024/04/24 08:37:15;;;;;;;3.30;2.00;;;;;;;;;;5309869;26;20075;-55
2024/04/24 08:39:40;;;;;;;4.68;2.40;;;;;;;;;;5310053;26;20005;-58
2024/04/24 08:42:06;;;;;;;2.13;1.85;;;;;;;;;;5310095;26;20024;-54
2024/04/24 08:44:33;;;;;;;4.18;2.05;;;;;;;;;;5302924;27;20017;-58
2024/04/24 08:47:00;;;;;;;2.80;2.35;;;;;;;;;;5339350;26;20019;-53
2024/04/24 08:49:26;;;;;;;5.70;2.22;;;;;;;;;;5310011;26;20023;-57
2024/04/24 08:51:54;;;;;;;2.50;2.17;;;;;;;;;;5340520;26;20028;-54
2024/04/24 08:54:19;;;;;;;;;;;;;;;;;;5281397;26;20016;-57
2024/04/24 08:56:52;;;;;;;2.72;2.10;;;;;;;;;;5310064;26;19926;-56
2024/04/24 08:59:26;;;;;;;2.92;1.92;;;;;;;;;;5340638;26;20016;-55
2024/04/24 09:02:04;;;;;;;3.45;2.20;;;;;;;;;;5340013;26;20012;-56
2024/04/24 09:04:29;;;;;;;;;;;;;;;;;;5340026;26;20009;-54
2024/04/24 09:06:55;;;;;;;2.90;2.25;;;;;;;;;;5339860;26;19926;-56
2024/04/24 09:09:23;;;;;;;6.80;2.35;;;;;;;;;;5340371;26;20087;-58
2024/04/24 09:11:49;;;;;;;3.60;2.63;;;;;;;;;;5309636;26;20019;-59
2024/04/24 09:14:16;;;;;;;4.13;3.00;;;;;;;;;;5303863;27;20614;-56
2024/04/24 09:16:42;;;;;;;3.67;2.60;;;;;;;;;;5305838;27;20006;-57
2024/04/24 09:19:07;;;;;;;3.92;2.70;;;;;;;;;;5305430;27;20881;-59
2024/04/24 09:21:33;;;;;;;4.90;2.63;;;;;;;;;;5305458;27;20017;-54
2024/04/24 09:23:59;;;;;;;4.88;2.83;;;;;;;;;;5306352;26;20104;-58
2024/04/24 09:26:25;;;;;;;5.18;2.53;;;;;;;;;;5309413;26;20037;-59
2024/04/24 09:28:50;;;;;;;4.65;2.53;;;;;;;;;;5339752;26;20044;-59
2024/04/24 09:31:16;;;;;;;4.35;2.55;;;;;;;;;;5309333;26;20016;-55
2024/04/24 09:33:42;;;;;;;4.00;2.40;;;;;;;;;;5339760;26;20021;-60
2024/04/24 09:36:08;;;;;;;4.57;2.97;;;;;;;;;;5339069;26;20567;-60
2024/04/24 09:38:34;;;;;;;3.10;2.47;;;;;;;;;;5307719;26;20053;-59
2024/04/24 09:41:00;;;;;;;3.42;2.63;;;;;;;;;;5309065;26;20098;-57
2024/04/24 09:43:26;;;;;;;5.57;2.72;;;;;;;;;;5309144;26;20005;-55
2024/04/24 09:45:54;;;;;;;3.72;2.50;;;;;;;;;;5338995;26;20024;-53
2024/04/24 09:48:21;;;;;;;2.85;2.60;;;;;;;;;;5339452;26;20016;-55
2024/04/24 09:50:49;;;;;;;2.72;2.53;;;;;;;;;;5339665;26;20617;-57
2024/04/24 09:53:16;;;;;;;4.32;2.50;;;;;;;;;;5308799;26;20005;-51
2024/04/24 09:55:44;;;;;;;4.07;2.70;;;;;;;;;;5338747;26;20040;-55
2024/04/24 09:58:10;;;;;;;3.15;2.72;;;;;;;;;;5339342;26;20020;-55
2024/04/24 10:00:36;;;;;;;4.80;2.70;;;;;;;;;;5339390;26;20132;-56
2024/04/24 10:03:05;;;;;;;5.53;2.90;;;;;;;;;;5339212;26;20021;-55
2024/04/24 10:05:31;;;;;;;3.67;2.70;;;;;;;;;;5338871;26;20091;-56
2024/04/24 10:08:00;;;;;;;4.13;2.97;;;;;;;;;;5338904;26;20020;-52
2024/04/24 10:10:38;;;;;;;3.17;2.85;;;;;;;;;;5338736;26;20005;-57
2024/04/24 10:13:03;;;;;;;;;;;;;;;;;;5280536;26;20087;-53
2024/04/24 10:15:35;;;;;;;2.95;2.65;;;;;;;;;;5332199;26;19935;-57
2024/04/24 10:18:01;;;;;;;13.63;4.55;;;;;;;;;;5273881;27;20502;-54
2024/04/24 10:20:28;;;;;;;3.88;2.70;;;;;;;;;;5304212;27;20026;-57
2024/04/24 10:22:53;;;;;;;3.03;2.53;;;;;;;;;;5302590;27;20044;-56
2024/04/24 10:25:19;;;;;;;8.00;3.40;;;;;;;;;;5274076;27;20018;-54
2024/04/24 10:27:46;;;;;;;8.43;3.30;;;;;;;;;;5287385;27;20072;-55
2024/04/24 10:30:13;;;;;;;5.43;2.90;;;;;;;;;;5303544;27;20009;-56
2024/04/24 10:32:39;;;;;;;3.13;2.50;;;;;;;;;;5303595;27;20013;-56
2024/04/24 10:35:05;;;;;;;4.95;2.90;;;;;;;;;;5301847;27;20661;-58
2024/04/24 10:37:31;;;;;;;4.05;2.40;;;;;;;;;;5301514;26;20029;-56
2024/04/24 10:39:57;;;;;;;6.95;3.00;;;;;;;;;;5273230;27;20504;-59
2024/04/24 10:42:22;;;;;;;5.30;2.70;;;;;;;;;;5328684;26;20024;-57
2024/04/24 10:44:48;;;;;;;3.35;2.22;;;;;;;;;;5337894;26;20012;-54
2024/04/24 10:47:14;;;;;;;5.13;2.30;;;;;;;;;;5307030;26;20023;-58
2024/04/24 10:49:40;;;;;;;2.67;2.45;;;;;;;;;;5306697;26;20108;-59
2024/04/24 10:52:06;;;;;;;3.17;2.70;;;;;;;;;;5337489;26;20380;-55
2024/04/24 10:54:32;;;;;;;5.70;2.58;;;;;;;;;;5337792;26;20009;-54
2024/04/24 10:56:58;;;;;;;11.43;3.50;;;;;;;;;;5337784;26;20012;-55
2024/04/24 10:59:30;;;;;;;4.95;2.83;;;;;;;;;;5336929;26;20024;-57
2024/04/24 11:02:05;;;;;;;3.80;2.53;;;;;;;;;;5337613;26;20009;-57
2024/04/24 11:04:31;;;;;;;5.00;2.80;;;;;;;;;;5338215;26;20013;-58
2024/04/24 11:06:57;;;;;;;4.30;2.95;;;;;;;;;;5306963;26;20056;-56
2024/04/24 11:09:23;;;;;;;6.93;3.35;;;;;;;;;;5278209;26;20013;-57
2024/04/24 11:11:50;;;;;;;5.40;3.00;;;;;;;;;;5307160;26;20941;-56
2024/04/24 11:14:16;;;;;;;3.90;2.80;;;;;;;;;;5337773;26;20005;-55
2024/04/24 11:16:52;;;;;;;6.60;2.50;;;;;;;;;;5337721;26;20124;-56
2024/04/24 11:19:18;;;;;;;3.33;2.80;;;;;;;;;;5337128;26;20016;-55
2024/04/24 11:21:44;;;;;;;3.75;2.50;;;;;;;;;;5337382;26;20084;-56
2024/04/24 11:24:09;;;;;;;4.28;2.58;;;;;;;;;;5337657;26;20013;-55
2024/04/24 11:26:35;;;;;;;5.13;3.10;;;;;;;;;;5337663;26;20480;-56
2024/04/24 11:29:02;;;;;;;4.20;2.97;;;;;;;;;;5299929;27;20432;-57
2024/04/24 11:31:29;;;;;;;3.72;2.83;;;;;;;;;;5302852;27;20006;-57
2024/04/24 11:33:55;;;;;;;3.95;2.92;;;;;;;;;;5302755;27;20018;-54
2024/04/24 11:36:21;;;;;;;4.13;3.20;;;;;;;;;;5271929;27;20517;-54
2024/04/24 11:38:46;;;;;;;4.90;3.20;;;;;;;;;;5294154;26;20053;-56
2024/04/24 11:41:12;;;;;;;3.63;3.00;;;;;;;;;;5306841;26;20048;-57
2024/04/24 11:43:38;;;;;;;3.75;2.92;;;;;;;;;;5337312;26;20029;-55
2024/04/24 11:46:04;;;;;;;5.65;3.28;;;;;;;;;;5337256;26;20439;-55
2024/04/24 11:48:29;;;;;;;4.95;3.30;;;;;;;;;;5335950;26;20009;-54
2024/04/24 11:50:55;;;;;;;5.25;3.58;;;;;;;;;;5337377;26;20012;-56
2024/04/24 11:53:21;;;;;;;5.38;3.65;;;;;;;;;;5337598;26;20001;-57
2024/04/24 11:55:47;;;;;;;3.35;2.88;;;;;;;;;;5307279;26;20021;-53
2024/04/24 11:58:13;;;;;;;2.83;2.55;;;;;;;;;;5337411;26;20082;-51
2024/04/24 12:00:39;;;;;;;5.45;3.10;;;;;;;;;;5337822;26;20012;-58
2024/04/24 12:03:05;;;;;;;5.38;3.35;;;;;;;;;;5340415;26;20009;-57
2024/04/24 12:05:31;;;;;;;7.00;3.50;;;;;;;;;;5340511;26;20013;-58
2024/04/24 12:07:57;;;;;;;8.48;3.50;;;;;;;;;;5308495;26;20394;-57
2024/04/24 12:10:23;;;;;;;6.13;3.20;;;;;;;;;;5308725;26;20009;-51
2024/04/24 12:12:48;;;;;;;8.60;3.88;;;;;;;;;;5307455;26;20053;-57
2024/04/24 12:15:14;;;;;;;4.10;3.70;;;;;;;;;;5339746;26;20033;-55
2024/04/24 12:17:40;;;;;;;7.43;3.97;;;;;;;;;;5340149;26;20017;-57
2024/04/24 12:20:06;;;;;;;7.90;3.70;;;;;;;;;;5307673;26;20016;-54
2024/04/24 12:22:31;;;;;;;4.28;3.50;;;;;;;;;;5305836;26;20013;-55
2024/04/24 12:24:57;;;;;;;8.02;3.40;;;;;;;;;;5305234;26;20582;-56
2024/04/24 12:27:23;;;;;;;6.70;3.58;;;;;;;;;;5274948;27;20505;-53
2024/04/24 12:29:49;;;;;;;8.82;3.63;;;;;;;;;;5314569;26;20023;-57
2024/04/24 12:32:15;;;;;;;6.22;4.50;;;;;;;;;;5308392;26;20044;-52
2024/04/24 12:34:42;;;;;;;7.00;4.05;;;;;;;;;;5309265;26;20463;-54
2024/04/24 12:37:08;;;;;;;6.78;4.85;;;;;;;;;;5339858;26;20780;-54
2024/04/24 12:39:33;;;;;;;8.90;4.30;;;;;;;;;;5252217;26;20009;-55
2024/04/24 12:41:59;;;;;;;6.22;4.05;;;;;;;;;;5339387;26;20023;-55
2024/04/24 12:44:25;;;;;;;4.95;3.55;;;;;;;;;;5340001;26;20090;-55
2024/04/24 12:46:50;;;;;;;9.63;3.70;;;;;;;;;;5339603;26;20086;-55
2024/04/24 12:49:16;;;;;;;7.57;3.88;;;;;;;;;;5339361;26;20027;-53
2024/04/24 12:51:41;;;;;;;12.52;3.90;;;;;;;;;;5340318;26;20013;-55
2024/04/24 12:54:07;;;;;;;6.90;3.30;;;;;;;;;;5309555;26;20561;-52
2024/04/24 12:56:33;;;;;;;6.63;3.45;;;;;;;;;;5339836;26;20049;-56
2024/04/24 12:58:58;;;;;;;3.25;2.90;;;;;;;;;;5302605;27;20403;-53
2024/04/24 13:01:24;;;;;;;5.43;3.22;;;;;;;;;;5305565;27;21044;-55
2024/04/24 13:03:50;;;;;;;4.72;2.88;;;;;;;;;;5275165;27;20021;-53
2024/04/24 13:06:16;;;;;;;5.00;3.15;;;;;;;;;;5304046;27;20512;-54
2024/04/24 13:08:42;;;;;;;6.97;3.30;;;;;;;;;;5277032;26;20009;-56
2024/04/24 13:11:09;;;;;;;5.18;3.00;;;;;;;;;;5308975;26;20020;-57
2024/04/24 13:13:35;;;;;;;4.13;3.13;;;;;;;;;;5307889;26;20063;-55
2024/04/24 13:16:01;;;;;;;9.85;3.65;;;;;;;;;;5308731;26;20008;-53
2024/04/24 13:18:26;;;;;;;3.60;3.03;;;;;;;;;;5339381;26;20017;-59
2024/04/24 13:20:52;;;;;;;4.75;3.03;;;;;;;;;;5338395;26;20025;-55
2024/04/24 13:23:18;;;;;;;6.88;3.30;;;;;;;;;;5339167;26;20029;-58
2024/04/24 13:25:44;;;;;;;8.57;4.38;;;;;;;;;;5252241;26;20044;-56
2024/04/24 13:28:09;;;;;;;8.38;3.05;;;;;;;;;;5338933;26;20115;-54
2024/04/24 13:30:36;;;;;;;8.65;4.22;;;;;;;;;;5338571;26;20028;-54
2024/04/24 13:33:01;;;;;;;5.55;3.40;;;;;;;;;;5308667;26;20009;-59
2024/04/24 13:35:27;;;;;;;7.38;3.38;;;;;;;;;;5339164;26;20064;-55
2024/04/24 13:37:52;;;;;;;5.55;3.20;;;;;;;;;;5339220;26;20021;-55
2024/04/24 13:40:18;;;;;;;3.92;2.70;;;;;;;;;;5308374;26;20024;-53
2024/04/24 13:42:44;;;;;;;6.95;3.45;;;;;;;;;;5338546;26;20023;-54
2024/04/24 13:45:10;;;;;;;8.38;3.22;;;;;;;;;;5339400;26;20016;-55
2024/04/24 13:47:35;;;;;;;6.00;3.15;;;;;;;;;;5337192;26;20359;-53
2024/04/24 13:50:02;;;;;;;7.70;3.53;;;;;;;;;;5307582;26;20321;-55
2024/04/24 13:52:28;;;;;;;15.20;5.88;;;;;;;;;;5308545;26;20088;-54
2024/04/24 13:54:54;;;;;;;7.55;3.65;;;;;;;;;;5338702;26;20013;-55
2024/04/24 13:57:21;;;;;;;9.40;3.90;;;;;;;;;;5337766;26;20009;-54
2024/04/24 13:59:46;;;;;;;9.65;3.47;;;;;;;;;;5276921;26;20126;-55
2024/04/24 14:02:12;;;;;;;6.80;3.90;;;;;;;;;;5338297;26;20016;-53
2024/04/24 14:04:38;;;;;;;6.25;4.00;;;;;;;;;;5338689;26;20023;-55
2024/04/24 14:07:03;;;;;;;11.85;6.10;;;;;;;;;;5307543;26;20085;-53
2024/04/24 14:09:29;;;;;;;8.38;4.10;;;;;;;;;;5338413;26;20024;-55
2024/04/24 14:11:55;;;;;;;12.23;6.50;;;;;;;;;;5332261;26;20012;-51
2024/04/24 14:14:22;;;;;;;13.48;5.28;;;;;;;;;;5322824;26;20004;-52
2024/04/24 14:16:48;;;;;;;9.98;4.35;;;;;;;;;;5332688;26;20500;-56
2024/04/24 14:19:13;;;;;;;7.90;3.97;;;;;;;;;;5328518;26;20013;-51
2024/04/24 14:21:39;;;;;;;9.27;4.55;;;;;;;;;;5338324;26;20016;-51
2024/04/24 14:24:05;;;;;;;13.20;4.00;;;;;;;;;;5327236;26;20021;-49
2024/04/24 14:26:31;;;;;;;7.55;3.42;;;;;;;;;;5319922;26;20016;-52
2024/04/24 14:28:56;;;;;;;8.55;3.50;;;;;;;;;;5263858;26;20021;-52
2024/04/24 14:31:22;;;;;;;5.43;3.17;;;;;;;;;;5319703;26;20020;-56
2024/04/24 14:33:48;;;;;;;6.30;4.22;;;;;;;;;;5322767;26;20029;-54
2024/04/24 14:36:15;;;;;;;7.82;3.42;;;;;;;;;;5319045;26;20029;-52
2024/04/24 14:38:42;;;;;;;11.13;3.53;;;;;;;;;;5327776;26;20024;-57
2024/04/24 14:41:12;;;;;;;6.03;3.78;;;;;;;;;;5322197;26;20586;-51